Time;durP1;ratioP1;P1;durP2;ratioP2;P2;SDS_P1;SDS_P2;PMS_P1;PMS_P2;Temp;Humidity;BMP_temperature;BMP_pressure;BME280_temperature;BME280_humidity;BME280_pressure;Samples;Min_cycle;Max_cycle;Signal;HPM_P1;HPM_P2
2021/07/04 00:01:32;;;;;;;4.72;2.85;;;27.90;49.20;;;;;;4330013;32;20106;-38
2021/07/04 00:03:59;;;;;;;9.18;2.85;;;27.90;49.10;;;;;;4342638;33;20547;-38
2021/07/04 00:06:25;;;;;;;4.03;2.78;;;27.90;48.90;;;;;;4342487;33;20086;-38
2021/07/04 00:08:52;;;;;;;9.35;3.20;;;27.90;48.70;;;;;;4330016;33;20135;-38
2021/07/04 00:11:18;;;;;;;5.43;3.10;;;28.00;48.80;;;;;;4344053;32;20098;-38
2021/07/04 00:13:45;;;;;;;4.72;2.95;;;28.00;48.70;;;;;;4332412;32;20114;-38
2021/07/04 00:16:11;;;;;;;13.00;3.30;;;28.00;48.60;;;;;;4344411;32;20064;-37
2021/07/04 00:18:38;;;;;;;7.60;3.08;;;28.00;48.50;;;;;;4332415;32;20626;-38
2021/07/04 00:21:07;;;;;;;4.03;2.65;;;27.90;48.30;;;;;;4344416;32;20101;-38
2021/07/04 00:23:34;;;;;;;4.18;3.00;;;27.90;48.30;;;;;;4356656;32;20452;-37
2021/07/04 00:26:00;;;;;;;2.70;2.50;;;27.80;48.40;;;;;;4356842;32;20072;-38
2021/07/04 00:28:27;;;;;;;4.47;3.00;;;27.80;48.40;;;;;;4356653;32;20141;-38
2021/07/04 00:30:53;;;;;;;3.78;3.15;;;27.70;48.30;;;;;;4344177;32;20683;-38
2021/07/04 00:33:20;;;;;;;3.42;3.12;;;27.60;48.30;;;;;;4367377;32;20069;-38
2021/07/04 00:35:47;;;;;;;4.37;3.15;;;27.30;48.50;;;;;;4372527;32;20069;-38
2021/07/04 00:38:13;;;;;;;4.57;3.30;;;27.20;49.30;;;;;;4388807;32;20485;-37
2021/07/04 00:40:42;;;;;;;4.50;3.20;;;27.10;49.70;;;;;;4401672;32;20085;-38
2021/07/04 00:43:09;;;;;;;7.68;2.97;;;27.10;49.80;;;;;;4402193;32;20069;-38
2021/07/04 00:45:35;;;;;;;4.87;3.15;;;27.20;49.60;;;;;;4401293;32;20485;-38
2021/07/04 00:48:02;;;;;;;3.60;2.53;;;27.20;49.50;;;;;;4388788;32;20158;-38
2021/07/04 00:50:30;;;;;;;6.47;3.37;;;27.20;49.60;;;;;;4388877;32;20143;-38
2021/07/04 00:52:58;;;;;;;6.65;2.80;;;27.20;49.60;;;;;;4401465;32;20562;-38
2021/07/04 00:55:24;;;;;;;4.78;3.33;;;27.30;49.40;;;;;;4388898;32;20100;-38
2021/07/04 00:57:51;;;;;;;5.20;3.12;;;27.30;49.30;;;;;;4396031;32;20158;-38
2021/07/04 01:00:21;;;;;;;3.37;3.08;;;27.30;49.00;;;;;;4373837;32;20096;-37
2021/07/04 01:02:48;;;;;;;5.05;3.30;;;27.20;49.00;;;;;;4385979;32;20209;-38
2021/07/04 01:05:19;;;;;;;6.12;3.35;;;27.10;49.30;;;;;;4341116;33;20128;-38
2021/07/04 01:07:48;;;;;;;5.03;2.75;;;27.10;49.60;;;;;;4341297;33;20443;-38
2021/07/04 01:10:17;;;;;;;4.75;3.05;;;27.10;49.50;;;;;;4315588;33;20060;-37
2021/07/04 01:12:45;;;;;;;5.03;3.47;;;27.10;49.40;;;;;;4337210;33;20074;-39
2021/07/04 01:15:13;;;;;;;6.12;2.65;;;27.10;49.60;;;;;;4353494;32;20481;-42
2021/07/04 01:17:40;;;;;;;5.80;2.97;;;27.20;49.70;;;;;;4329439;33;20108;-38
2021/07/04 01:20:09;;;;;;;3.50;3.15;;;27.30;49.60;;;;;;4317065;33;20518;-38
2021/07/04 01:22:38;;;;;;;3.22;2.33;;;27.40;49.30;;;;;;4328721;33;20102;-37
2021/07/04 01:25:10;;;;;;;4.37;3.10;;;27.70;48.90;;;;;;4328674;33;20113;-38
2021/07/04 01:27:36;;;;;;;3.50;2.67;;;27.90;48.60;;;;;;4328916;33;20160;-38
2021/07/04 01:30:08;;;;;;;3.58;2.87;;;28.10;48.30;;;;;;4368448;32;20082;-37
2021/07/04 01:32:35;;;;;;;4.62;3.28;;;28.30;48.00;;;;;;4388374;32;20066;-38
2021/07/04 01:35:01;;;;;;;7.65;3.47;;;28.30;47.70;;;;;;4374821;32;20061;-38
2021/07/04 01:37:28;;;;;;;3.42;3.12;;;28.30;47.70;;;;;;4375526;32;20065;-38
2021/07/04 01:39:54;;;;;;;6.50;3.33;;;28.20;47.60;;;;;;4376907;32;20170;-38
2021/07/04 01:42:21;;;;;;;6.30;4.07;;;28.10;47.90;;;;;;4392313;32;20519;-37
2021/07/04 01:44:47;;;;;;;4.20;3.53;;;28.10;48.30;;;;;;4392505;32;20518;-37
2021/07/04 01:47:14;;;;;;;7.53;4.20;;;28.00;48.50;;;;;;4378076;32;20062;-37
2021/07/04 01:49:40;;;;;;;4.07;2.97;;;28.10;48.60;;;;;;4374123;32;20522;-37
2021/07/04 01:52:07;;;;;;;5.32;2.95;;;28.20;48.40;;;;;;4373776;32;20101;-37
2021/07/04 01:54:34;;;;;;;7.05;2.90;;;28.30;48.40;;;;;;4374403;32;20104;-36
2021/07/04 01:57:11;;;;;;;4.22;2.67;;;28.50;48.00;;;;;;4374140;32;20129;-37
2021/07/04 01:59:42;;;;;;;3.33;2.62;;;28.80;47.30;;;;;;4390786;32;20181;-37
2021/07/04 02:02:09;;;;;;;4.15;2.75;;;29.00;46.70;;;;;;4403213;32;20073;-37
2021/07/04 02:04:40;;;;;;;5.35;2.37;;;29.30;46.30;;;;;;4389085;32;20065;-36
2021/07/04 02:07:16;;;;;;;2.95;2.40;;;29.50;45.50;;;;;;4389374;32;20528;-36
2021/07/04 02:09:47;;;;;;;3.15;2.10;;;29.70;45.10;;;;;;4403525;32;20073;-36
2021/07/04 02:12:14;;;;;;;4.15;2.22;;;30.00;44.30;;;;;;4389195;32;20066;-36
2021/07/04 02:14:41;;;;;;;2.25;1.67;;;30.10;43.80;;;;;;4403061;32;20072;-35
2021/07/04 02:17:08;;;;;;;3.15;2.03;;;30.30;43.00;;;;;;4388725;32;20100;-36
2021/07/04 02:19:36;;;;;;;6.53;1.67;;;30.50;42.70;;;;;;4389222;32;20092;-36
2021/07/04 02:22:04;;;;;;;4.35;1.40;;;30.80;42.30;;;;;;4403396;32;20065;-37
2021/07/04 02:24:31;;;;;;;2.60;1.92;;;31.00;41.90;;;;;;4403346;32;20149;-36
2021/07/04 02:26:58;;;;;;;3.60;1.83;;;31.20;41.60;;;;;;4403032;32;20153;-36
2021/07/04 02:29:24;;;;;;;4.55;1.90;;;31.40;41.20;;;;;;4388642;32;20503;-36
2021/07/04 02:31:50;;;;;;;2.75;1.70;;;31.60;40.80;;;;;;4403076;32;20068;-36
2021/07/04 02:34:17;;;;;;;4.03;1.55;;;31.80;40.70;;;;;;4389512;32;20069;-36
2021/07/04 02:36:44;;;;;;;2.72;1.58;;;31.90;40.00;;;;;;4402761;32;20064;-37
2021/07/04 02:39:13;;;;;;;1.50;1.17;;;32.00;39.60;;;;;;4389136;32;20113;-37
2021/07/04 02:41:41;;;;;;;3.12;1.67;;;31.80;39.10;;;;;;4389222;32;20603;-37
2021/07/04 02:44:07;;;;;;;2.53;1.40;;;31.60;39.30;;;;;;4388733;32;20060;-36
2021/07/04 02:46:34;;;;;;;1.40;0.85;;;31.40;40.00;;;;;;4401416;32;20093;-36
2021/07/04 02:49:00;;;;;;;1.35;0.82;;;31.20;40.00;;;;;;4388679;32;20131;-37
2021/07/04 02:51:27;;;;;;;2.45;1.20;;;31.00;40.50;;;;;;4388437;32;20452;-36
2021/07/04 02:53:53;;;;;;;4.30;1.00;;;30.90;40.90;;;;;;4388447;32;20453;-36
2021/07/04 02:56:20;;;;;;;2.37;1.42;;;30.80;41.20;;;;;;4401631;32;20073;-36
2021/07/04 02:58:46;;;;;;;1.95;0.90;;;30.70;41.50;;;;;;4391727;32;20082;-37
2021/07/04 03:01:13;;;;;;;1.87;1.20;;;30.70;41.90;;;;;;4390452;32;20073;-37
2021/07/04 03:03:39;;;;;;;2.33;1.10;;;30.60;42.20;;;;;;4376182;32;20050;-36
2021/07/04 03:06:05;;;;;;;2.10;1.55;;;30.70;42.40;;;;;;4390411;32;20081;-38
2021/07/04 03:08:32;;;;;;;4.75;1.17;;;30.80;42.40;;;;;;4376104;32;20061;-41
2021/07/04 03:10:58;;;;;;;1.35;1.20;;;30.90;42.20;;;;;;4390675;32;20065;-38
2021/07/04 03:13:25;;;;;;;3.67;1.45;;;31.00;41.90;;;;;;4389849;32;20078;-37
2021/07/04 03:15:51;;;;;;;2.85;1.58;;;31.00;41.80;;;;;;4390451;32;20320;-36
2021/07/04 03:18:18;;;;;;;2.50;1.90;;;30.90;42.20;;;;;;4376250;32;20054;-37
2021/07/04 03:20:44;;;;;;;2.67;1.58;;;30.80;42.60;;;;;;4390494;32;20061;-36
2021/07/04 03:23:11;;;;;;;1.70;1.40;;;30.80;43.00;;;;;;4390034;32;20062;-37
2021/07/04 03:25:37;;;;;;;2.58;1.80;;;30.80;43.30;;;;;;4389968;32;20073;-36
2021/07/04 03:28:04;;;;;;;1.00;0.77;;;30.80;43.10;;;;;;4390284;32;20167;-36
2021/07/04 03:30:32;;;;;;;4.82;1.48;;;30.80;42.80;;;;;;4363612;32;20069;-36
2021/07/04 03:32:58;;;;;;;2.80;1.50;;;30.90;42.30;;;;;;4375960;32;20060;-36
2021/07/04 03:35:24;;;;;;;2.58;1.70;;;30.90;42.80;;;;;;4344799;32;20070;-36
2021/07/04 03:37:51;;;;;;;2.72;1.90;;;30.90;42.10;;;;;;4357279;32;20066;-36
2021/07/04 03:40:18;;;;;;;4.30;2.90;;;30.90;42.00;;;;;;4345205;32;20082;-36
2021/07/04 03:42:46;;;;;;;2.30;1.50;;;31.00;42.50;;;;;;4332594;32;20058;-37
2021/07/04 03:45:13;;;;;;;3.75;1.98;;;31.10;42.50;;;;;;4357471;32;20082;-37
2021/07/04 03:47:40;;;;;;;1.92;1.70;;;31.30;42.30;;;;;;4357107;32;20084;-37
2021/07/04 03:50:07;;;;;;;2.25;1.65;;;31.40;42.20;;;;;;4345436;32;20468;-36
2021/07/04 03:52:34;;;;;;;2.55;1.27;;;31.50;41.80;;;;;;4345301;32;20176;-37
2021/07/04 03:55:00;;;;;;;1.60;1.48;;;31.50;41.40;;;;;;4341732;33;20074;-36
2021/07/04 03:57:28;;;;;;;1.62;1.48;;;31.40;41.40;;;;;;4345299;32;20495;-36
2021/07/04 03:59:57;;;;;;;1.92;1.70;;;31.50;40.50;;;;;;4344673;32;20075;-36
2021/07/04 04:02:23;;;;;;;2.85;1.87;;;31.50;41.00;;;;;;4357561;32;20094;-35
2021/07/04 04:04:56;;;;;;;2.45;2.10;;;31.70;40.60;;;;;;4344790;32;20199;-35
2021/07/04 04:07:23;;;;;;;3.12;1.75;;;31.80;40.50;;;;;;4358346;32;20192;-36
2021/07/04 04:09:51;;;;;;;6.57;2.03;;;32.00;41.20;;;;;;4372053;32;20073;-38
2021/07/04 04:12:21;;;;;;;1.40;1.30;;;32.20;40.30;;;;;;4370973;32;20109;-38
2021/07/04 04:14:48;;;;;;;3.05;1.52;;;32.20;39.70;;;;;;4371874;32;20054;-38
2021/07/04 04:17:14;;;;;;;7.03;2.30;;;32.30;39.70;;;;;;4359117;32;20084;-37
2021/07/04 04:19:42;;;;;;;3.78;1.67;;;32.30;39.70;;;;;;4371557;32;20101;-36
2021/07/04 04:22:08;;;;;;;2.37;1.60;;;32.40;39.40;;;;;;4359196;32;20084;-38
2021/07/04 04:24:34;;;;;;;5.87;1.75;;;32.40;39.10;;;;;;4371872;32;20204;-38
2021/07/04 04:27:01;;;;;;;3.00;1.62;;;32.50;39.50;;;;;;4341592;33;20160;-37
2021/07/04 04:29:27;;;;;;;2.55;1.83;;;32.50;39.50;;;;;;4317441;33;20095;-37
2021/07/04 04:31:54;;;;;;;3.12;1.77;;;32.60;39.30;;;;;;4345874;32;20124;-36
2021/07/04 04:34:20;;;;;;;2.92;1.58;;;32.60;39.00;;;;;;4356628;32;20066;-37
2021/07/04 04:36:46;;;;;;;2.67;1.65;;;32.70;38.80;;;;;;4344203;32;20651;-37
2021/07/04 04:39:13;;;;;;;1.92;1.60;;;32.80;39.00;;;;;;4356204;32;20070;-37
2021/07/04 04:41:39;;;;;;;1.73;1.10;;;32.80;39.00;;;;;;4356539;32;20069;-37
2021/07/04 04:44:06;;;;;;;1.98;1.30;;;32.80;38.50;;;;;;4343942;32;20186;-38
2021/07/04 04:46:33;;;;;;;2.62;1.60;;;32.70;38.00;;;;;;4356451;32;20087;-37
2021/07/04 04:49:00;;;;;;;4.95;2.35;;;32.50;38.70;;;;;;4356375;32;20118;-38
2021/07/04 04:51:26;;;;;;;3.95;2.17;;;32.40;39.60;;;;;;4344376;32;20091;-37
2021/07/04 04:53:53;;;;;;;6.75;2.45;;;32.40;39.90;;;;;;4356815;32;20078;-36
2021/07/04 04:56:19;;;;;;;1.58;1.33;;;32.40;39.60;;;;;;4356040;32;20555;-37
2021/07/04 04:58:45;;;;;;;1.83;1.20;;;32.60;39.70;;;;;;4367204;32;20086;-38
2021/07/04 05:01:12;;;;;;;6.57;2.17;;;32.70;39.10;;;;;;4371150;32;20480;-38
2021/07/04 05:03:38;;;;;;;2.20;2.00;;;32.60;39.30;;;;;;4376057;32;20084;-39
2021/07/04 05:06:05;;;;;;;3.10;1.95;;;32.70;39.40;;;;;;4403584;32;20089;-37
2021/07/04 05:08:31;;;;;;;5.68;2.42;;;32.70;39.10;;;;;;4403878;32;20140;-37
2021/07/04 05:10:58;;;;;;;4.50;2.75;;;32.70;39.20;;;;;;4403844;32;20081;-37
2021/07/04 05:13:24;;;;;;;5.82;1.75;;;32.80;39.10;;;;;;4403418;32;20069;-36
2021/07/04 05:15:51;;;;;;;2.20;2.00;;;32.80;38.90;;;;;;4403814;32;20146;-37
2021/07/04 05:18:18;;;;;;;4.65;2.58;;;32.80;39.00;;;;;;4403725;32;20061;-37
2021/07/04 05:20:44;;;;;;;2.35;1.90;;;33.00;39.10;;;;;;4389601;32;20151;-38
2021/07/04 05:23:11;;;;;;;2.90;1.48;;;33.10;38.50;;;;;;4402938;32;20573;-37
2021/07/04 05:25:37;;;;;;;1.87;0.70;;;33.20;38.50;;;;;;4403025;32;20065;-37
2021/07/04 05:28:04;;;;;;;1.30;0.82;;;33.20;38.60;;;;;;4403182;32;20066;-38
2021/07/04 05:30:30;;;;;;;2.87;1.17;;;33.10;38.00;;;;;;4389601;32;20154;-38
2021/07/04 05:32:57;;;;;;;1.37;1.02;;;33.10;37.90;;;;;;4403431;32;20097;-37
2021/07/04 05:35:23;;;;;;;3.80;1.90;;;32.90;37.70;;;;;;4385381;32;20090;-38
2021/07/04 05:37:50;;;;;;;1.75;1.25;;;32.80;37.70;;;;;;4385533;32;20089;-36
2021/07/04 05:40:17;;;;;;;3.90;2.30;;;32.70;37.70;;;;;;4385629;32;20093;-37
2021/07/04 05:42:43;;;;;;;5.35;2.95;;;32.70;37.60;;;;;;4372960;32;20072;-37
2021/07/04 05:45:14;;;;;;;1.17;0.62;;;32.80;38.00;;;;;;4385755;32;20078;-38
2021/07/04 05:47:41;;;;;;;3.05;1.52;;;32.80;37.50;;;;;;4385699;32;20537;-38
2021/07/04 05:50:07;;;;;;;5.07;2.22;;;32.80;37.90;;;;;;4373502;32;20494;-38
2021/07/04 05:52:34;;;;;;;1.27;0.73;;;32.70;38.20;;;;;;4385283;32;20097;-37
2021/07/04 05:55:00;;;;;;;7.10;2.85;;;32.50;38.30;;;;;;4372857;32;20070;-38
2021/07/04 05:57:27;;;;;;;2.08;1.52;;;32.40;38.80;;;;;;4385474;32;20572;-38
2021/07/04 05:59:53;;;;;;;3.90;1.30;;;32.40;38.70;;;;;;4360592;32;20061;-38
2021/07/04 06:02:20;;;;;;;4.53;2.47;;;32.10;38.70;;;;;;4385630;32;20525;-39
2021/07/04 06:04:46;;;;;;;3.20;2.62;;;31.90;39.50;;;;;;4372994;32;20077;-39
2021/07/04 06:07:12;;;;;;;3.87;2.78;;;31.80;40.00;;;;;;4385135;32;20117;-38
2021/07/04 06:09:39;;;;;;;5.45;3.10;;;31.60;39.80;;;;;;4385633;32;20072;-39
2021/07/04 06:12:06;;;;;;;5.37;2.75;;;31.60;40.10;;;;;;4375845;32;20069;-37
2021/07/04 06:14:32;;;;;;;2.80;2.22;;;31.70;40.30;;;;;;4403513;32;20205;-38
2021/07/04 06:16:59;;;;;;;3.78;2.00;;;31.90;40.20;;;;;;4402746;32;20066;-39
2021/07/04 06:19:25;;;;;;;2.08;1.00;;;32.00;39.50;;;;;;4402737;32;20509;-38
2021/07/04 06:21:52;;;;;;;3.42;2.53;;;32.20;38.70;;;;;;4402773;32;20092;-38
2021/07/04 06:24:18;;;;;;;3.55;2.95;;;32.30;38.70;;;;;;4402828;32;20084;-38
2021/07/04 06:26:44;;;;;;;3.42;3.12;;;32.40;38.40;;;;;;4388742;32;20182;-39
2021/07/04 06:29:11;;;;;;;3.33;2.30;;;32.50;38.30;;;;;;4369551;32;20566;-39
2021/07/04 06:31:37;;;;;;;0.93;0.50;;;32.70;38.30;;;;;;4370325;32;20607;-37
2021/07/04 06:34:04;;;;;;;1.75;1.10;;;32.70;37.80;;;;;;4370303;32;20151;-38
2021/07/04 06:36:30;;;;;;;1.80;1.58;;;32.70;38.00;;;;;;4373287;32;20096;-39
2021/07/04 06:38:57;;;;;;;3.53;1.65;;;32.70;38.00;;;;;;4373424;32;20092;-38
2021/07/04 06:41:25;;;;;;;3.78;1.37;;;32.70;38.00;;;;;;4373322;32;20613;-38
2021/07/04 06:43:51;;;;;;;3.90;2.20;;;32.70;37.80;;;;;;4373217;32;20142;-38
2021/07/04 06:46:18;;;;;;;1.90;1.25;;;32.70;38.20;;;;;;4360614;32;20074;-38
2021/07/04 06:48:45;;;;;;;2.60;1.55;;;32.70;37.80;;;;;;4372959;32;20142;-38
2021/07/04 06:51:11;;;;;;;1.80;1.10;;;32.80;37.60;;;;;;4373092;32;20162;-38
2021/07/04 06:53:38;;;;;;;1.87;1.05;;;32.70;37.50;;;;;;4360584;32;20151;-37
2021/07/04 06:56:05;;;;;;;4.03;1.45;;;32.60;37.40;;;;;;4373029;32;20637;-36
2021/07/04 06:58:31;;;;;;;1.87;1.20;;;32.60;37.60;;;;;;4333468;33;20168;-38
2021/07/04 07:00:57;;;;;;;1.35;0.80;;;32.70;38.20;;;;;;4328241;33;20079;-37
2021/07/04 07:03:24;;;;;;;10.77;1.85;;;32.60;38.30;;;;;;4328218;33;20082;-38
2021/07/04 07:05:50;;;;;;;5.57;1.85;;;32.60;38.10;;;;;;4332949;32;20070;-38
2021/07/04 07:08:17;;;;;;;1.25;0.73;;;32.70;37.90;;;;;;4357597;32;20074;-37
2021/07/04 07:10:43;;;;;;;2.95;1.00;;;32.60;37.50;;;;;;4357784;32;20082;-37
2021/07/04 07:13:09;;;;;;;2.00;1.10;;;32.70;37.70;;;;;;4357933;32;20065;-38
2021/07/04 07:15:36;;;;;;;3.75;1.45;;;32.90;37.10;;;;;;4345701;32;20096;-38
2021/07/04 07:18:02;;;;;;;1.52;1.00;;;33.00;36.60;;;;;;4357873;32;20078;-38
2021/07/04 07:20:29;;;;;;;5.22;1.45;;;33.10;36.20;;;;;;4358051;32;20104;-40
2021/07/04 07:22:55;;;;;;;6.05;1.40;;;33.10;36.20;;;;;;4357978;32;20091;-39
2021/07/04 07:25:22;;;;;;;0.82;0.82;;;33.00;36.70;;;;;;4357690;32;20147;-38
2021/07/04 07:27:48;;;;;;;3.08;1.05;;;32.90;37.00;;;;;;4357462;32;20121;-38
2021/07/04 07:30:16;;;;;;;1.05;0.95;;;32.60;37.50;;;;;;4383530;32;20141;-39
2021/07/04 07:32:42;;;;;;;3.15;0.93;;;32.40;37.80;;;;;;4388709;32;20074;-39
2021/07/04 07:35:09;;;;;;;6.25;1.52;;;32.20;37.80;;;;;;4401042;32;20125;-39
2021/07/04 07:37:36;;;;;;;1.60;0.95;;;32.20;38.20;;;;;;4390182;32;20150;-39
2021/07/04 07:40:04;;;;;;;4.95;0.80;;;32.20;38.00;;;;;;4390380;32;20144;-38
2021/07/04 07:42:31;;;;;;;3.92;1.05;;;32.30;37.90;;;;;;4375943;32;20065;-38
2021/07/04 07:44:57;;;;;;;1.98;1.10;;;32.40;37.60;;;;;;4389740;32;20164;-38
2021/07/04 07:47:23;;;;;;;1.85;0.57;;;32.40;37.50;;;;;;4389232;32;20074;-40
2021/07/04 07:49:50;;;;;;;1.58;0.90;;;32.40;37.20;;;;;;4388381;32;20061;-38
2021/07/04 07:52:16;;;;;;;2.10;1.42;;;32.50;36.70;;;;;;4388180;32;20074;-37
2021/07/04 07:54:43;;;;;;;0.85;0.50;;;32.60;36.80;;;;;;4389684;32;20057;-38
2021/07/04 07:57:09;;;;;;;2.28;1.05;;;32.60;35.60;;;;;;4390908;32;20062;-38
2021/07/04 07:59:36;;;;;;;1.58;0.98;;;32.70;35.80;;;;;;4404981;32;20534;-41
2021/07/04 08:02:02;;;;;;;2.28;0.80;;;32.90;36.00;;;;;;4390507;32;20066;-37
2021/07/04 08:04:29;;;;;;;0.68;0.52;;;33.10;36.00;;;;;;4390870;32;20153;-37
2021/07/04 08:06:55;;;;;;;1.45;0.62;;;33.10;36.10;;;;;;4390395;32;20136;-40
2021/07/04 08:09:22;;;;;;;4.37;0.85;;;33.10;36.10;;;;;;4404748;32;20061;-38
2021/07/04 08:11:49;;;;;;;2.12;0.60;;;33.10;35.80;;;;;;4390147;32;20070;-37
2021/07/04 08:14:15;;;;;;;1.95;0.70;;;33.00;35.60;;;;;;4390057;32;20089;-37
2021/07/04 08:16:41;;;;;;;0.70;0.43;;;32.90;35.00;;;;;;4404425;32;20546;-39
2021/07/04 08:19:08;;;;;;;0.73;0.55;;;32.80;35.20;;;;;;4390694;32;20068;-38
2021/07/04 08:21:34;;;;;;;3.50;1.00;;;32.80;35.20;;;;;;4404654;32;20058;-38
2021/07/04 08:24:01;;;;;;;1.17;0.75;;;32.90;35.10;;;;;;4404315;32;20062;-37
2021/07/04 08:26:28;;;;;;;3.80;0.93;;;33.10;35.40;;;;;;4390009;32;20056;-37
2021/07/04 08:28:54;;;;;;;1.45;0.85;;;33.30;35.00;;;;;;4404352;32;20072;-36
2021/07/04 08:31:24;;;;;;;0.73;0.52;;;33.60;34.40;;;;;;4404007;32;20077;-38
2021/07/04 08:33:51;;;;;;;0.93;0.60;;;33.90;34.30;;;;;;4390055;32;20042;-37
2021/07/04 08:36:17;;;;;;;4.62;0.70;;;34.00;33.80;;;;;;4390377;32;20064;-36
2021/07/04 08:38:44;;;;;;;3.42;0.80;;;34.10;34.00;;;;;;4403648;32;20096;-37
2021/07/04 08:41:11;;;;;;;0.93;0.60;;;34.20;33.60;;;;;;4389882;32;20479;-37
2021/07/04 08:43:38;;;;;;;2.72;0.82;;;34.10;33.10;;;;;;4390022;32;20066;-37
2021/07/04 08:46:05;;;;;;;2.17;1.23;;;34.00;33.70;;;;;;4389918;32;20534;-38
2021/07/04 08:48:35;;;;;;;2.90;1.30;;;34.00;33.90;;;;;;4403522;32;20485;-38
2021/07/04 08:51:02;;;;;;;0.62;0.50;;;34.00;33.80;;;;;;4390177;32;20541;-39
2021/07/04 08:53:29;;;;;;;2.08;0.65;;;34.00;33.70;;;;;;4389883;32;20168;-38
2021/07/04 08:55:55;;;;;;;1.62;1.08;;;34.00;33.60;;;;;;4403935;32;20071;-38
2021/07/04 08:58:25;;;;;;;1.80;1.10;;;34.00;33.70;;;;;;4395285;32;20070;-37
2021/07/04 09:01:15;;;;;;;3.58;0.90;;;34.20;33.50;;;;;;4388588;32;20054;-38
2021/07/04 09:03:52;;;;;;;0.95;0.50;;;34.50;33.00;;;;;;4389175;32;20057;-37
2021/07/04 09:06:56;;;;;;;1.25;0.88;;;34.50;33.10;;;;;;4386803;32;20076;-38
2021/07/04 09:09:27;;;;;;;4.00;0.43;;;34.40;33.30;;;;;;4340954;33;20085;-36
2021/07/04 09:12:06;;;;;;;2.00;1.00;;;34.30;33.30;;;;;;4341268;33;20089;-38
2021/07/04 09:14:45;;;;;;;0.90;0.70;;;34.40;33.40;;;;;;4341033;32;20133;-38
2021/07/04 09:17:16;;;;;;;2.12;1.05;;;34.30;33.30;;;;;;4341250;32;20585;-36
2021/07/04 09:19:54;;;;;;;2.33;0.88;;;34.20;33.90;;;;;;4341261;32;20054;-37
2021/07/04 09:22:37;;;;;;;1.67;0.70;;;34.00;34.00;;;;;;4329034;33;20070;-36
2021/07/04 09:25:18;;;;;;;0.68;0.43;;;34.00;34.10;;;;;;4340713;32;20110;-37
2021/07/04 09:28:12;;;;;;;2.30;0.70;;;34.10;34.20;;;;;;4328795;33;20474;-36
2021/07/04 09:30:44;;;;;;;1.00;0.70;;;34.20;33.40;;;;;;4341154;33;20074;-37
2021/07/04 09:33:18;;;;;;;1.12;0.75;;;34.20;33.20;;;;;;4329433;33;20073;-37
2021/07/04 09:36:04;;;;;;;1.10;0.70;;;34.30;33.40;;;;;;4328736;33;20082;-37
2021/07/04 09:38:42;;;;;;;0.82;0.52;;;34.40;33.80;;;;;;4329051;33;20071;-38
2021/07/04 09:41:13;;;;;;;1.02;0.60;;;34.40;33.20;;;;;;4341071;32;20063;-37
2021/07/04 09:43:39;;;;;;;0.70;0.60;;;34.40;32.90;;;;;;4370128;32;20073;-36
2021/07/04 09:46:08;;;;;;;1.10;0.77;;;34.10;33.10;;;;;;4388033;32;20544;-37
2021/07/04 09:48:41;;;;;;;0.28;0.28;;;33.90;33.30;;;;;;4386533;32;20105;-36
2021/07/04 09:51:15;;;;;;;0.98;0.60;;;33.80;33.50;;;;;;4388086;32;20159;-37
2021/07/04 09:53:49;;;;;;;2.97;0.70;;;33.60;34.40;;;;;;4358606;32;20108;-37
2021/07/04 09:56:23;;;;;;;0.90;0.32;;;33.60;34.70;;;;;;4358415;32;20154;-37
2021/07/04 09:58:53;;;;;;;1.25;0.75;;;33.30;34.70;;;;;;4358216;32;20081;-38
2021/07/04 10:01:38;;;;;;;1.05;0.88;;;33.30;35.00;;;;;;4370596;32;20165;-37
2021/07/04 10:04:08;;;;;;;1.87;0.70;;;33.40;35.40;;;;;;4371541;32;20488;-38
2021/07/04 10:06:51;;;;;;;3.00;1.15;;;33.50;34.90;;;;;;4372120;32;20194;-38
2021/07/04 10:09:19;;;;;;;1.35;0.80;;;33.60;34.00;;;;;;4370534;32;20521;-38
2021/07/04 10:11:46;;;;;;;1.60;0.55;;;33.60;33.60;;;;;;4360759;32;20085;-37
2021/07/04 10:14:13;;;;;;;2.87;0.50;;;33.70;33.60;;;;;;4360883;32;20588;-37
2021/07/04 10:16:43;;;;;;;1.08;0.65;;;33.70;33.40;;;;;;4371633;32;20069;-36
2021/07/04 10:19:14;;;;;;;1.02;0.45;;;33.50;33.80;;;;;;4370932;32;20166;-37
2021/07/04 10:21:40;;;;;;;1.35;0.50;;;33.40;33.40;;;;;;4345319;32;20148;-37
2021/07/04 10:24:07;;;;;;;0.88;0.52;;;33.40;33.60;;;;;;4365436;32;20162;-37
2021/07/04 10:26:36;;;;;;;1.37;1.05;;;33.30;33.40;;;;;;4375838;32;20533;-36
2021/07/04 10:29:04;;;;;;;0.73;0.50;;;33.30;33.80;;;;;;4403206;32;20077;-37
2021/07/04 10:31:32;;;;;;;1.62;0.60;;;33.20;33.10;;;;;;4384649;32;20161;-37
2021/07/04 10:34:18;;;;;;;0.60;0.37;;;33.20;32.70;;;;;;4384900;32;20600;-37
2021/07/04 10:37:01;;;;;;;1.27;0.60;;;33.30;32.20;;;;;;4373101;32;20557;-37
2021/07/04 10:39:32;;;;;;;0.68;0.40;;;33.30;32.10;;;;;;4372472;32;20112;-37
2021/07/04 10:42:02;;;;;;;1.90;0.50;;;33.30;32.00;;;;;;4372497;32;20093;-38
2021/07/04 10:44:46;;;;;;;3.58;0.40;;;33.30;31.80;;;;;;4372563;32;20073;-37
2021/07/04 10:47:20;;;;;;;0.65;0.40;;;33.30;31.90;;;;;;4385845;32;20532;-36
2021/07/04 10:50:06;;;;;;;1.60;0.90;;;33.30;31.90;;;;;;4385153;32;20072;-37
2021/07/04 10:52:42;;;;;;;0.85;0.40;;;33.40;31.80;;;;;;4385071;32;20100;-37
2021/07/04 10:55:32;;;;;;;4.60;0.68;;;33.50;31.20;;;;;;4384908;32;20084;-38
2021/07/04 10:58:02;;;;;;;0.60;0.50;;;33.50;31.10;;;;;;4372325;32;20089;-36
2021/07/04 11:00:39;;;;;;;1.05;0.60;;;33.50;30.70;;;;;;4325371;33;20622;-37
2021/07/04 11:03:13;;;;;;;0.90;0.60;;;33.50;30.80;;;;;;4313958;33;20074;-36
2021/07/04 11:05:43;;;;;;;1.58;0.47;;;33.40;30.70;;;;;;4313239;33;20665;-39
2021/07/04 11:08:15;;;;;;;2.47;0.80;;;33.40;30.60;;;;;;4327990;33;20059;-37
2021/07/04 11:11:06;;;;;;;0.60;0.40;;;33.50;30.70;;;;;;4328202;33;20078;-36
2021/07/04 11:13:45;;;;;;;0.50;0.30;;;33.40;30.60;;;;;;4327368;33;20253;-37
2021/07/04 11:16:17;;;;;;;0.80;0.45;;;33.50;30.70;;;;;;4329147;33;20067;-37
2021/07/04 11:18:47;;;;;;;0.80;0.60;;;33.30;30.60;;;;;;4340260;33;20121;-37
2021/07/04 11:21:16;;;;;;;0.75;0.57;;;33.50;30.80;;;;;;4340210;32;20075;-37
2021/07/04 11:23:42;;;;;;;3.40;0.65;;;33.50;31.50;;;;;;4342963;33;20075;-37
2021/07/04 11:26:16;;;;;;;0.45;0.28;;;33.50;31.80;;;;;;4318184;33;20082;-37
2021/07/04 11:28:50;;;;;;;4.80;0.50;;;33.40;31.60;;;;;;4342998;33;20611;-38
2021/07/04 11:31:16;;;;;;;;;;;33.40;31.80;;;;;;4337602;32;20134;-38
2021/07/04 11:33:53;;;;;;;0.52;0.50;;;33.70;31.90;;;;;;4389779;32;19992;-38
2021/07/04 11:36:28;;;;;;;0.50;0.30;;;33.80;32.00;;;;;;4376513;32;20074;-36
2021/07/04 11:39:08;;;;;;;1.08;0.47;;;33.60;32.50;;;;;;4376373;32;20077;-37
2021/07/04 11:41:51;;;;;;;1.48;0.47;;;33.40;32.80;;;;;;4390282;32;20069;-37
2021/07/04 11:44:23;;;;;;;0.50;0.40;;;33.40;33.10;;;;;;4390046;32;20064;-36
2021/07/04 11:46:53;;;;;;;2.92;0.40;;;33.20;33.20;;;;;;4388602;32;20058;-37
2021/07/04 11:49:29;;;;;;;2.15;0.50;;;32.90;33.70;;;;;;4375738;32;20115;-36
2021/07/04 11:51:59;;;;;;;1.08;0.55;;;32.70;34.10;;;;;;4375544;32;20094;-36
2021/07/04 11:54:33;;;;;;;0.60;0.35;;;32.50;34.10;;;;;;4375572;32;20061;-37
2021/07/04 12:00:06;;;;;;;1.05;0.52;;;32.40;33.90;;;;;;4364847;32;20096;-36
2021/07/04 12:02:35;;;;;;;0.70;0.40;;;32.30;34.00;;;;;;4389803;32;20082;-37
2021/07/04 12:05:21;;;;;;;0.50;0.28;;;32.40;34.10;;;;;;4375345;32;20193;-37
2021/07/04 12:07:50;;;;;;;0.65;0.30;;;32.30;34.10;;;;;;4389564;32;20127;-37
2021/07/04 12:10:16;;;;;;;0.70;0.52;;;32.20;34.20;;;;;;4363308;32;20228;-37
2021/07/04 12:12:42;;;;;;;0.52;0.50;;;32.30;34.20;;;;;;4389280;32;20520;-37
2021/07/04 12:15:13;;;;;;;1.45;0.30;;;32.40;35.10;;;;;;4328981;33;20137;-39
2021/07/04 12:17:45;;;;;;;0.57;0.40;;;32.30;34.50;;;;;;4297418;33;20189;-37
2021/07/04 12:20:21;;;;;;;0.40;0.40;;;32.30;34.10;;;;;;4297884;33;20515;-37
2021/07/04 12:23:02;;;;;;;1.08;0.45;;;32.30;34.20;;;;;;4287285;33;20056;-37
2021/07/04 12:25:34;;;;;;;0.68;0.40;;;32.20;34.10;;;;;;4286037;33;20091;-37
2021/07/04 12:28:06;;;;;;;0.62;0.40;;;32.40;34.20;;;;;;4297631;33;20076;-37
2021/07/04 12:30:33;;;;;;;0.20;0.20;;;32.40;34.20;;;;;;4285863;33;20161;-37
2021/07/04 12:33:11;;;;;;;0.70;0.40;;;32.20;34.50;;;;;;4297376;33;20571;-38
2021/07/04 12:35:44;;;;;;;0.45;0.40;;;32.10;34.70;;;;;;4298058;33;20056;-39
2021/07/04 12:38:14;;;;;;;0.40;0.37;;;32.30;34.70;;;;;;4285866;33;20063;-38
2021/07/04 12:41:02;;;;;;;0.28;0.28;;;32.10;34.90;;;;;;4297746;33;20078;-38
2021/07/04 12:43:35;;;;;;;0.70;0.50;;;32.00;34.90;;;;;;4297734;33;20204;-37
2021/07/04 12:46:15;;;;;;;1.08;0.50;;;32.10;35.00;;;;;;4316808;33;20059;-38
2021/07/04 12:48:44;;;;;;;0.30;0.30;;;32.10;34.80;;;;;;4365250;32;20050;-38
2021/07/04 12:51:10;;;;;;;0.80;0.32;;;32.30;34.60;;;;;;4388801;32;20058;-37
2021/07/04 12:53:46;;;;;;;0.70;0.50;;;32.10;34.40;;;;;;4362135;32;20507;-37
2021/07/04 12:56:33;;;;;;;0.45;0.37;;;31.90;34.20;;;;;;4343550;32;20061;-37
2021/07/04 12:59:00;;;;;;;0.93;0.30;;;31.90;34.60;;;;;;4368557;32;20085;-39
2021/07/04 13:01:37;;;;;;;0.50;0.50;;;31.80;34.80;;;;;;4371173;32;20073;-37